Time;durP1;ratioP1;P1;durP2;ratioP2;P2;SDS_P1;SDS_P2;PMS_P1;PMS_P2;Temp;Humidity;BMP_temperature;BMP_pressure;BME280_temperature;BME280_humidity;BME280_pressure;Samples;Min_cycle;Max_cycle;Signal;HPM_P1;HPM_P2
2021/03/25 00:01:27;;;;;;;23.53;12.87;;;;;;;5.04;97.89;98725.50;3709541;79;44104;-26
2021/03/25 00:06:36;;;;;;;23.83;13.07;;;;;;;5.02;98.41;98722.09;3715687;79;43706;-26
2021/03/25 00:11:42;;;;;;;23.90;13.23;;;;;;;5.00;98.94;98717.85;3703628;78;44125;-26
2021/03/25 00:16:48;;;;;;;24.57;13.13;;;;;;;4.97;99.40;98718.08;3715330;79;43301;-25
2021/03/25 00:21:54;;;;;;;24.50;13.40;;;;;;;4.93;99.85;98714.30;3718651;79;43335;-26
2021/03/25 00:27:00;;;;;;;23.40;12.53;;;;;;;4.89;99.95;98710.16;3715312;79;44058;-26
2021/03/25 00:32:08;;;;;;;22.10;11.80;;;;;;;4.82;100.00;98714.28;3712669;79;43247;-25
2021/03/25 00:37:15;;;;;;;25.30;13.27;;;;;;;4.76;100.00;98706.26;3710406;79;43314;-25
2021/03/25 00:42:21;;;;;;;24.00;12.33;;;;;;;4.72;100.00;98706.61;3724300;79;43345;-25
2021/03/25 00:47:27;;;;;;;24.03;12.90;;;;;;;4.70;100.00;98703.20;3706510;79;44512;-25
2021/03/25 00:52:34;;;;;;;23.83;12.17;;;;;;;4.67;100.00;98699.42;3717000;79;43384;-26
2021/03/25 00:57:40;;;;;;;23.40;12.50;;;;;;;4.60;100.00;98695.91;3709508;79;43678;-26
2021/03/25 01:02:46;;;;;;;28.80;14.30;;;;;;;4.55;100.00;98683.88;3731208;79;44167;-26
2021/03/25 01:07:53;;;;;;;25.83;12.90;;;;;;;4.51;100.00;98683.27;3712202;79;43740;-25
2021/03/25 01:13:00;;;;;;;28.07;13.50;;;;;;;4.49;100.00;98681.19;3710896;79;43678;-24
2021/03/25 01:18:09;;;;;;;24.87;13.13;;;;;;;4.44;100.00;98680.20;3711672;79;43693;-26
2021/03/25 01:23:17;;;;;;;25.90;14.23;;;;;;;4.39;100.00;98673.52;3689623;79;26760;-26
2021/03/25 01:28:25;;;;;;;26.17;13.33;;;;;;;4.30;100.00;98675.89;3692902;79;43409;-26
2021/03/25 01:33:31;;;;;;;24.33;13.17;;;;;;;4.27;100.00;98677.95;3710985;79;43729;-25
2021/03/25 01:38:37;;;;;;;24.83;13.20;;;;;;;4.23;100.00;98677.33;3719899;79;43693;-25
2021/03/25 01:43:46;;;;;;;21.43;11.37;;;;;;;4.18;100.00;98678.14;3708450;79;44441;-25
2021/03/25 01:48:55;;;;;;;22.37;12.60;;;;;;;4.11;100.00;98684.45;3727784;79;44005;-24
2021/03/25 01:54:32;;;;;;;22.00;11.77;;;;;;;4.09;100.00;98678.37;3727937;79;26322;-26
2021/03/25 01:59:59;;;;;;;25.80;13.27;;;;;;;4.08;100.00;98674.47;3705817;79;43296;-25
2021/03/25 02:05:16;;;;;;;27.10;13.50;;;;;;;4.06;100.00;98667.92;3712188;79;26459;-25
2021/03/25 02:10:25;;;;;;;27.10;14.13;;;;;;;4.01;100.00;98661.60;3715947;79;43379;-25
2021/03/25 02:15:38;;;;;;;29.40;13.87;;;;;;;4.00;100.00;98657.70;3717122;79;26328;-25
2021/03/25 02:21:29;;;;;;;23.97;13.40;;;;;;;3.99;100.00;98653.36;3719197;79;26370;-25
2021/03/25 02:26:41;;;;;;;24.93;13.07;;;;;;;3.99;100.00;98648.02;3714549;79;26780;-25
2021/03/25 02:31:50;;;;;;;29.53;14.50;;;;;;;4.00;100.00;98647.03;3721047;79;44617;-25
2021/03/25 02:36:59;;;;;;;27.60;14.40;;;;;;;3.93;100.00;98641.80;3723240;78;44431;-24
2021/03/25 02:42:11;;;;;;;25.23;13.27;;;;;;;3.90;100.00;98642.02;3716889;79;43987;-25
2021/03/25 02:47:20;;;;;;;23.20;13.03;;;;;;;3.89;100.00;98649.18;3720065;79;43126;-25
2021/03/25 02:52:30;;;;;;;24.43;13.37;;;;;;;3.85;100.00;98646.36;3719287;79;44398;-25
2021/03/25 02:57:41;;;;;;;24.90;13.30;;;;;;;3.79;100.00;98641.50;3696626;79;45076;-25
2021/03/25 03:02:51;;;;;;;26.70;14.03;;;;;;;3.77;100.00;98641.59;3706591;78;26358;-24
2021/03/25 03:08:12;;;;;;;27.13;13.73;;;;;;;3.73;100.00;98641.93;3635484;79;26876;-25
2021/03/25 03:13:20;;;;;;;27.83;12.77;;;;;;;3.66;100.00;98640.19;3712369;79;43912;-25
2021/03/25 03:18:30;;;;;;;27.87;13.90;;;;;;;3.60;100.00;98638.83;3694864;79;43137;-25
2021/03/25 03:23:39;;;;;;;29.13;13.63;;;;;;;3.52;100.00;98638.55;3706386;79;26883;-25
2021/03/25 03:28:50;;;;;;;28.33;13.07;;;;;;;3.49;100.00;98640.09;3693021;79;44170;-25
2021/03/25 03:34:06;;;;;;;23.40;13.27;;;;;;;3.44;100.00;98636.92;3706301;79;27392;-25
2021/03/25 03:39:15;;;;;;;23.60;13.00;;;;;;;3.37;100.00;98641.34;3719040;79;44019;-25
2021/03/25 03:44:25;;;;;;;28.47;14.03;;;;;;;3.33;100.00;98638.55;3699767;79;43170;-25
2021/03/25 03:49:36;;;;;;;27.93;13.83;;;;;;;3.30;100.00;98637.89;3722985;78;42970;-25
2021/03/25 03:54:44;;;;;;;27.90;14.53;;;;;;;3.18;100.00;98628.98;3705961;78;44031;-25
2021/03/25 03:59:55;;;;;;;27.87;14.07;;;;;;;3.16;100.00;98634.43;3675482;79;43798;-25
2021/03/25 04:05:08;;;;;;;29.10;14.10;;;;;;;3.17;100.00;98635.27;3706459;79;44055;-25
2021/03/25 04:10:19;;;;;;;28.50;14.37;;;;;;;3.12;100.00;98636.09;3711155;79;26358;-25
2021/03/25 04:15:29;;;;;;;27.00;14.40;;;;;;;3.13;100.00;98636.44;3719544;79;26483;-25
2021/03/25 04:20:39;;;;;;;27.73;13.63;;;;;;;3.15;100.00;98639.84;3701323;79;26816;-24
2021/03/25 04:25:50;;;;;;;30.53;14.63;;;;;;;3.15;100.00;98640.71;3711487;79;26462;-25
2021/03/25 04:30:57;;;;;;;22.77;12.20;;;;;;;3.14;100.00;98629.69;3716078;79;43442;-25
2021/03/25 04:36:04;;;;;;;26.67;14.27;;;;;;;3.09;100.00;98645.13;3701094;79;44110;-25
2021/03/25 04:41:13;;;;;;;28.60;13.60;;;;;;;3.05;100.00;98645.83;3696978;79;43093;-25
2021/03/25 04:46:28;;;;;;;28.03;14.37;;;;;;;3.01;100.00;98645.66;3694310;79;43720;-25
2021/03/25 04:51:35;;;;;;;24.70;12.83;;;;;;;3.00;100.00;98658.59;3691777;79;43388;-25
2021/03/25 04:56:41;;;;;;;28.73;13.87;;;;;;;2.98;100.00;98655.22;3687053;79;43455;-26
2021/03/25 05:01:48;;;;;;;27.73;13.20;;;;;;;2.92;100.00;98656.50;3690251;79;43947;-26
2021/03/25 05:06:57;;;;;;;30.27;14.63;;;;;;;2.88;100.00;98653.66;3709460;79;43686;-26
2021/03/25 05:12:04;;;;;;;26.87;13.63;;;;;;;2.88;100.00;98660.81;3715557;79;43696;-25
2021/03/25 05:17:15;;;;;;;26.70;13.90;;;;;;;2.86;100.00;98658.73;3692963;79;43641;-24
2021/03/25 05:22:25;;;;;;;24.33;12.63;;;;;;;2.83;100.00;98657.11;3692862;79;44009;-25
2021/03/25 05:27:34;;;;;;;25.27;13.30;;;;;;;2.82;100.00;98658.55;3698337;79;43433;-25
2021/03/25 05:32:44;;;;;;;27.50;13.53;;;;;;;2.86;100.00;98658.73;3688392;79;43149;-25
2021/03/25 05:37:51;;;;;;;27.17;13.17;;;;;;;2.87;100.00;98654.62;3691650;79;44496;-29
2021/03/25 05:43:00;;;;;;;27.90;13.43;;;;;;;2.89;100.00;98655.83;3688970;79;43002;-28
2021/03/25 05:48:47;;;;;;;31.30;14.37;;;;;;;2.89;100.00;98650.51;3691577;79;44419;-29
2021/03/25 05:53:59;;;;;;;27.60;12.93;;;;;;;2.87;100.00;98653.78;3688291;79;44101;-28
2021/03/25 05:59:09;;;;;;;24.87;12.73;;;;;;;2.86;100.00;98658.23;3692479;79;44018;-29
2021/03/25 06:04:19;;;;;;;28.40;14.07;;;;;;;2.87;100.00;98661.77;3690977;79;44047;-28
2021/03/25 06:09:31;;;;;;;27.67;13.47;;;;;;;2.88;100.00;98663.47;3694372;79;43681;-29
2021/03/25 06:14:44;;;;;;;27.17;14.07;;;;;;;2.92;100.00;98671.59;3692412;79;42939;-29
2021/03/25 06:20:15;;;;;;;25.27;13.70;;;;;;;2.94;100.00;98667.02;3688412;79;43749;-28
2021/03/25 06:25:30;;;;;;;28.23;14.37;;;;;;;2.98;100.00;98667.19;3695720;79;44313;-29
2021/03/25 06:30:40;;;;;;;28.47;14.70;;;;;;;3.05;100.00;98671.11;3689096;79;44089;-29
2021/03/25 06:35:49;;;;;;;28.93;14.53;;;;;;;3.13;100.00;98681.69;3685683;79;43690;-29
2021/03/25 06:40:58;;;;;;;27.13;12.73;;;;;;;3.19;100.00;98677.28;3689079;79;42788;-29
2021/03/25 06:46:07;;;;;;;26.47;14.17;;;;;;;3.28;100.00;98691.27;3688902;79;43452;-29
2021/03/25 06:51:21;;;;;;;28.30;13.70;;;;;;;3.40;100.00;98688.23;3684322;79;44062;-29
2021/03/25 06:56:32;;;;;;;28.83;13.83;;;;;;;3.53;100.00;98683.70;3694705;79;44011;-30
2021/03/25 07:01:42;;;;;;;31.33;14.33;;;;;;;3.70;100.00;98684.31;3705371;79;44052;-30
2021/03/25 07:06:50;;;;;;;25.33;13.90;;;;;;;3.88;100.00;98692.78;3693159;79;43066;-25
2021/03/25 07:11:57;;;;;;;25.83;13.47;;;;;;;4.05;100.00;98688.88;3689579;79;43945;-25
2021/03/25 07:17:05;;;;;;;25.20;13.33;;;;;;;4.25;100.00;98691.88;3698326;79;43414;-25
2021/03/25 07:22:24;;;;;;;29.13;15.10;;;;;;;4.42;100.00;98690.61;3696298;78;44436;-25
2021/03/25 07:27:35;;;;;;;24.80;13.37;;;;;;;4.58;100.00;98689.83;3693687;79;43301;-25
2021/03/25 07:32:46;;;;;;;25.63;12.93;;;;;;;4.87;100.00;98693.44;3696092;79;44162;-25
2021/03/25 07:37:54;;;;;;;27.27;14.33;;;;;;;5.14;100.00;98688.73;3696543;79;43363;-25
2021/03/25 07:43:16;;;;;;;24.27;13.10;;;;;;;5.31;100.00;98694.08;3690978;79;43332;-25
2021/03/25 07:48:26;;;;;;;25.23;13.27;;;;;;;5.53;100.00;98690.53;3712554;79;43490;-25
2021/03/25 07:53:33;;;;;;;24.07;12.60;;;;;;;5.80;100.00;98691.97;3698649;78;43722;-25
2021/03/25 07:58:42;;;;;;;23.67;12.33;;;;;;;5.99;100.00;98695.34;3708000;79;44002;-25
2021/03/25 08:03:51;;;;;;;23.70;13.17;;;;;;;6.24;100.00;98702.22;3699731;79;44006;-25
2021/03/25 08:09:03;;;;;;;24.47;12.50;;;;;;;6.40;100.00;98702.29;3699800;79;43672;-25
2021/03/25 08:14:17;;;;;;;24.87;13.20;;;;;;;6.64;100.00;98703.42;3712653;79;43455;-25
2021/03/25 08:19:35;;;;;;;22.03;12.83;;;;;;;6.85;99.51;98705.25;3695846;79;43337;-26
2021/03/25 08:25:08;;;;;;;22.43;11.97;;;;;;;6.98;100.00;98711.27;3712846;79;43329;-26
2021/03/25 08:30:40;;;;;;;23.30;12.57;;;;;;;7.31;100.00;98706.65;3708865;79;73342;-25
2021/03/25 08:35:50;;;;;;;24.97;12.70;;;;;;;7.67;98.59;98707.09;3689614;79;45386;-26
2021/03/25 08:41:00;;;;;;;22.65;12.03;;;;;;;8.04;92.19;98698.08;3703585;79;43694;-26
2021/03/25 08:46:09;;;;;;;19.87;10.78;;;;;;;8.28;92.58;98703.91;3688752;79;43383;-26
2021/03/25 08:51:18;;;;;;;21.17;11.80;;;;;;;8.65;91.21;98695.67;3711567;79;43467;-26
2021/03/25 08:56:36;;;;;;;19.77;10.45;;;;;;;8.91;87.12;98697.27;3698730;78;44005;-26
2021/03/25 09:01:45;;;;;;;20.80;10.90;;;;;;;9.10;86.60;98695.55;3689627;79;77303;-26
2021/03/25 09:06:52;;;;;;;22.70;11.63;;;;;;;9.40;81.57;98693.61;3700960;78;43682;-26
2021/03/25 09:12:00;;;;;;;21.43;11.50;;;;;;;9.66;82.26;98696.98;3695665;79;44558;-24
2021/03/25 09:17:15;;;;;;;21.65;11.95;;;;;;;9.96;81.30;98693.14;3697429;79;44031;-24
2021/03/25 09:22:46;;;;;;;21.10;11.25;;;;;;;10.24;80.21;98696.28;3695050;79;44015;-24
2021/03/25 09:27:58;;;;;;;19.60;9.70;;;;;;;10.51;77.68;98693.22;3692642;79;43333;-24
2021/03/25 09:33:38;;;;;;;17.90;11.05;;;;;;;10.67;77.05;98690.66;3697848;79;44026;-24
2021/03/25 09:38:45;;;;;;;19.92;10.25;;;;;;;10.91;76.78;98693.20;3689689;79;43494;-24
2021/03/25 09:43:54;;;;;;;20.43;11.03;;;;;;;11.05;77.05;98687.25;3705330;79;43987;-24
2021/03/25 09:49:16;;;;;;;21.12;11.40;;;;;;;11.10;77.59;98688.13;3700586;79;43885;-24
2021/03/25 09:54:25;;;;;;;21.07;10.88;;;;;;;11.24;75.73;98685.34;3702884;79;43342;-25
2021/03/25 09:59:52;;;;;;;20.00;11.63;;;;;;;11.36;72.65;98686.77;3705794;79;43718;-24
2021/03/25 10:05:17;;;;;;;21.23;11.83;;;;;;;11.55;70.03;98688.91;3705545;79;43686;-24
2021/03/25 10:10:41;;;;;;;25.40;11.93;;;;;;;11.84;74.85;98689.01;3702038;79;43379;-25
2021/03/25 10:15:52;;;;;;;20.35;11.80;;;;;;;12.08;72.50;98681.55;3701426;79;43358;-24
2021/03/25 10:21:02;;;;;;;20.92;12.37;;;;;;;12.17;74.08;98676.50;3693689;79;43304;-24
2021/03/25 10:26:19;;;;;;;22.05;12.18;;;;;;;12.36;73.15;98679.06;3701647;79;44058;-24
2021/03/25 10:31:27;;;;;;;20.52;12.45;;;;;;;12.46;70.65;98674.34;3701684;79;44077;-24
2021/03/25 10:36:40;;;;;;;21.17;11.90;;;;;;;12.68;70.90;98659.83;3720210;79;43459;-24
2021/03/25 10:41:45;;;;;;;20.48;12.47;;;;;;;12.75;69.39;98657.63;3695186;79;43941;-24
2021/03/25 10:46:52;;;;;;;21.55;12.33;;;;;;;12.89;71.02;98653.39;3690444;79;44090;-25
2021/03/25 10:51:58;;;;;;;23.20;12.40;;;;;;;13.11;67.03;98641.55;3703290;79;44006;-24
2021/03/25 10:57:13;;;;;;;22.60;12.35;;;;;;;13.21;67.89;98643.55;3723384;79;43345;-24
2021/03/25 11:02:23;;;;;;;23.50;13.00;;;;;;;13.28;64.28;98644.20;3688158;79;44041;-25
2021/03/25 11:07:30;;;;;;;23.62;12.68;;;;;;;13.51;70.26;98642.98;3696393;79;43345;-25
2021/03/25 11:12:37;;;;;;;24.05;12.90;;;;;;;13.75;66.66;98627.14;3692993;79;44075;-25
2021/03/25 11:17:45;;;;;;;23.02;12.73;;;;;;;13.65;65.14;98621.09;3690190;79;43990;-25
2021/03/25 11:22:52;;;;;;;23.70;12.47;;;;;;;13.67;61.02;98618.54;3698590;79;43986;-24
2021/03/25 11:28:05;;;;;;;23.47;12.88;;;;;;;13.90;62.14;98610.14;3694706;79;44037;-24
2021/03/25 11:33:27;;;;;;;22.93;12.23;;;;;;;13.97;59.49;98611.97;3691368;79;44398;-25
2021/03/25 11:38:38;;;;;;;24.18;12.45;;;;;;;14.01;64.45;98608.38;3691960;79;43654;-25
2021/03/25 11:43:51;;;;;;;24.65;13.05;;;;;;;14.22;60.64;98607.74;3704728;79;43665;-25
2021/03/25 11:49:04;;;;;;;22.10;12.50;;;;;;;14.29;62.26;98598.34;3703770;78;43477;-25
2021/03/25 11:54:31;;;;;;;22.40;13.32;;;;;;;14.35;58.52;98594.93;3699366;79;44095;-24
2021/03/25 11:59:39;;;;;;;25.12;13.05;;;;;;;14.52;59.56;98586.68;3710343;79;43669;-24
2021/03/25 12:04:46;;;;;;;20.35;11.70;;;;;;;14.54;57.97;98587.31;3709896;79;43319;-24
2021/03/25 12:10:08;;;;;;;19.87;11.97;;;;;;;14.61;60.79;98580.16;3701509;79;44086;-25
2021/03/25 12:15:16;;;;;;;20.10;11.70;;;;;;;14.76;60.13;98576.97;3697127;79;43495;-25
2021/03/25 12:20:26;;;;;;;20.30;11.85;;;;;;;14.90;60.35;98567.68;3701797;79;43466;-25
2021/03/25 12:25:32;;;;;;;22.32;12.65;;;;;;;14.90;56.84;98563.61;3696112;79;44399;-25
2021/03/25 12:30:38;;;;;;;20.45;12.63;;;;;;;15.07;55.38;98565.13;3700301;79;43427;-25
2021/03/25 12:35:46;;;;;;;22.42;12.23;;;;;;;15.30;55.44;98566.05;3667850;79;85899;-25
2021/03/25 12:40:52;;;;;;;22.02;13.22;;;;;;;15.23;53.86;98562.73;3561502;81;43446;-25
2021/03/25 12:46:02;;;;;;;22.15;12.15;;;;;;;15.19;53.96;98554.64;3498143;83;43365;-25
2021/03/25 12:51:13;;;;;;;20.27;11.60;;;;;;;15.58;54.53;98546.36;3625244;80;44384;-25
2021/03/25 12:56:22;;;;;;;22.30;12.60;;;;;;;15.70;53.94;98533.44;3617223;80;43353;-25
2021/03/25 13:01:32;;;;;;;18.92;11.80;;;;;;;15.60;54.29;98535.62;3624008;80;43287;-25
2021/03/25 13:06:38;;;;;;;22.77;12.28;;;;;;;15.50;55.59;98532.38;3625826;80;44011;-25
2021/03/25 13:11:45;;;;;;;18.60;11.30;;;;;;;15.45;55.12;98530.76;3622913;81;42800;-24
2021/03/25 13:16:51;;;;;;;20.65;12.63;;;;;;;15.64;53.53;98527.42;3628995;80;42997;-24
2021/03/25 13:21:57;;;;;;;25.60;12.85;;;;;;;15.78;51.98;98522.14;3619204;80;43465;-25
2021/03/25 13:27:05;;;;;;;28.20;15.05;;;;;;;15.63;50.93;98520.31;3552575;82;43720;-25
2021/03/25 13:32:12;;;;;;;26.15;14.87;;;;;;;15.52;52.99;98519.45;3622717;80;44002;-25
2021/03/25 13:37:18;;;;;;;27.98;15.08;;;;;;;15.85;54.10;98508.14;3622390;80;43701;-25
2021/03/25 13:42:24;;;;;;;20.23;12.45;;;;;;;15.71;55.47;98513.39;3622860;81;44086;-25
2021/03/25 13:47:30;;;;;;;24.75;13.80;;;;;;;15.92;55.86;98511.78;3622440;80;43310;-25
2021/03/25 13:52:37;;;;;;;24.40;14.18;;;;;;;16.20;54.38;98502.82;3622452;80;44056;-25
2021/03/25 13:57:46;;;;;;;23.60;14.20;;;;;;;16.54;50.78;98497.13;3624859;80;44635;-25
2021/03/25 14:02:53;;;;;;;24.85;13.62;;;;;;;16.33;52.89;98504.83;3622925;80;43185;-25
2021/03/25 14:08:01;;;;;;;24.60;14.58;;;;;;;16.70;52.26;98500.05;3545541;82;43471;-30
2021/03/25 14:13:11;;;;;;;23.70;14.25;;;;;;;17.01;50.07;98503.41;3554208;82;44707;-30
2021/03/25 14:18:20;;;;;;;21.25;13.83;;;;;;;17.25;49.23;98493.38;3623765;80;42682;-30
2021/03/25 14:23:27;;;;;;;24.70;14.43;;;;;;;17.12;51.91;98496.03;3549530;82;43709;-30
2021/03/25 14:28:34;;;;;;;25.95;14.95;;;;;;;16.78;52.63;98489.54;3622584;80;43999;-30
2021/03/25 14:33:41;;;;;;;23.95;14.85;;;;;;;16.63;51.39;98486.94;3621730;80;44838;-30
2021/03/25 14:38:48;;;;;;;22.60;14.05;;;;;;;16.72;50.78;98490.35;3620993;80;44529;-30
2021/03/25 14:43:54;;;;;;;23.35;14.07;;;;;;;16.64;49.71;98482.65;3612910;80;43476;-30
2021/03/25 14:49:01;;;;;;;25.48;14.65;;;;;;;16.74;51.35;98482.84;3528175;82;43999;-30
2021/03/25 14:54:08;;;;;;;26.40;14.70;;;;;;;16.88;50.66;98476.95;3530847;82;44152;-30
2021/03/25 14:59:15;;;;;;;23.42;14.23;;;;;;;17.33;49.34;98480.65;3469531;84;44099;-30
2021/03/25 15:04:21;;;;;;;21.27;13.68;;;;;;;17.04;50.46;98484.82;3585502;81;43712;-30
2021/03/25 15:09:28;;;;;;;23.20;14.07;;;;;;;17.04;51.13;98478.52;3551532;82;43334;-30
2021/03/25 15:14:35;;;;;;;23.50;14.63;;;;;;;16.85;51.91;98476.84;3524690;82;44673;-30
2021/03/25 15:19:41;;;;;;;24.10;13.98;;;;;;;16.64;51.79;98467.69;3538734;82;43285;-30
2021/03/25 15:24:49;;;;;;;25.92;15.25;;;;;;;16.52;53.91;98470.67;3543910;82;43366;-30
2021/03/25 15:29:59;;;;;;;23.90;15.15;;;;;;;16.38;51.71;98472.44;3531488;82;44093;-30
2021/03/25 15:35:10;;;;;;;26.62;14.90;;;;;;;16.22;54.13;98474.93;3476308;83;43472;-29
2021/03/25 15:40:19;;;;;;;29.37;15.93;;;;;;;16.37;52.56;98477.55;3474020;84;43323;-29
2021/03/25 15:45:25;;;;;;;25.90;14.50;;;;;;;16.38;53.93;98468.36;3487009;83;43518;-30
2021/03/25 15:50:32;;;;;;;23.42;13.85;;;;;;;16.40;51.65;98470.90;3622022;80;44034;-29
2021/03/25 15:55:40;;;;;;;25.65;14.58;;;;;;;16.23;54.34;98471.17;3625018;80;43081;-30
2021/03/25 16:00:47;;;;;;;25.27;14.63;;;;;;;16.00;53.94;98468.66;3623786;80;43760;-29
2021/03/25 16:05:56;;;;;;;24.47;15.15;;;;;;;15.85;55.33;98467.39;3623051;80;43994;-30
2021/03/25 16:11:03;;;;;;;28.20;15.85;;;;;;;15.57;56.48;98481.72;3624450;80;43449;-30
2021/03/25 16:16:10;;;;;;;26.37;16.10;;;;;;;15.31;58.36;98472.23;3621544;80;43747;-30
2021/03/25 16:21:16;;;;;;;29.00;15.90;;;;;;;15.07;58.59;98477.45;3623930;80;44027;-29
2021/03/25 16:26:26;;;;;;;28.25;15.65;;;;;;;14.94;59.48;98478.13;3622266;80;44508;-29
2021/03/25 16:31:32;;;;;;;29.37;15.78;;;;;;;14.71;59.09;98479.56;3617813;80;44018;-30
2021/03/25 16:36:39;;;;;;;30.40;16.42;;;;;;;14.54;59.86;98482.44;3567725;82;44091;-30
2021/03/25 16:41:47;;;;;;;28.27;16.45;;;;;;;14.41;60.17;98483.06;3622475;80;43912;-30
2021/03/25 16:46:54;;;;;;;31.25;17.25;;;;;;;14.36;62.10;98480.58;3618574;80;44082;-29
2021/03/25 16:52:00;;;;;;;26.12;15.83;;;;;;;14.18;61.51;98479.89;3553153;82;43709;-30
2021/03/25 16:57:08;;;;;;;31.17;15.32;;;;;;;14.16;62.63;98483.81;3552604;82;43750;-30
2021/03/25 17:02:14;;;;;;;28.38;15.65;;;;;;;14.11;62.26;98487.07;3544195;82;43019;-31
2021/03/25 17:07:20;;;;;;;24.10;15.28;;;;;;;13.99;61.52;98496.66;3549206;82;44452;-30
2021/03/25 17:12:26;;;;;;;31.95;17.17;;;;;;;13.92;64.82;98492.47;3583590;82;43134;-30
2021/03/25 17:17:32;;;;;;;27.35;16.35;;;;;;;13.77;65.66;98492.91;3564221;82;43351;-30
2021/03/25 17:22:39;;;;;;;30.90;16.73;;;;;;;13.62;65.86;98492.85;3535221;82;43719;-29
2021/03/25 17:27:45;;;;;;;28.83;15.75;;;;;;;13.45;64.92;98503.80;3543530;82;44022;-30
2021/03/25 17:32:52;;;;;;;33.70;17.12;;;;;;;13.26;65.00;98506.40;3539739;82;43586;-30
2021/03/25 17:37:58;;;;;;;29.30;16.15;;;;;;;13.04;65.30;98506.16;3545635;82;43701;-29
2021/03/25 17:43:04;;;;;;;30.27;15.78;;;;;;;12.91;64.98;98507.22;3537752;82;44042;-30
2021/03/25 17:48:13;;;;;;;30.88;16.57;;;;;;;12.70;65.99;98514.02;3562019;82;44032;-29
2021/03/25 17:53:21;;;;;;;30.35;16.48;;;;;;;12.62;65.44;98510.84;3572043;82;43684;-30
2021/03/25 17:58:27;;;;;;;28.92;15.80;;;;;;;12.59;65.32;98509.83;3549316;82;43338;-30
2021/03/25 18:03:34;;;;;;;32.40;15.55;;;;;;;12.56;64.83;98515.58;3593139;81;44500;-30
2021/03/25 18:08:40;;;;;;;32.00;16.32;;;;;;;12.48;66.30;98522.35;3547192;82;43387;-29
2021/03/25 18:13:49;;;;;;;31.97;17.92;;;;;;;12.39;65.88;98523.38;3564432;82;44085;-30
2021/03/25 18:18:55;;;;;;;31.93;17.40;;;;;;;12.28;66.94;98528.13;3482585;84;42944;-30
2021/03/25 18:24:01;;;;;;;32.28;17.57;;;;;;;12.07;68.49;98534.52;3593892;81;42996;-30
2021/03/25 18:29:11;;;;;;;34.48;18.20;;;;;;;11.97;68.91;98532.80;3559933;82;42948;-29
2021/03/25 18:34:18;;;;;;;32.65;16.57;;;;;;;11.94;69.19;98539.88;3648730;80;44068;-29
2021/03/25 18:39:24;;;;;;;31.15;16.60;;;;;;;11.88;69.19;98544.08;3644455;80;43723;-30
2021/03/25 18:44:32;;;;;;;34.43;17.12;;;;;;;11.77;70.82;98551.67;3738597;77;43503;-29
2021/03/25 18:49:38;;;;;;;39.33;18.30;;;;;;;11.72;71.46;98557.05;3705462;77;43664;-29
2021/03/25 18:54:45;;;;;;;35.00;18.40;;;;;;;11.65;72.41;98549.28;3697828;78;43373;-29
2021/03/25 18:59:51;;;;;;;34.53;17.67;;;;;;;11.70;71.44;98552.31;3701681;78;44057;-29
2021/03/25 19:04:57;;;;;;;35.17;16.42;;;;;;;11.72;71.27;98551.66;3684891;78;43381;-29
2021/03/25 19:10:02;;;;;;;33.67;18.60;;;;;;;11.72;72.24;98556.22;3694306;78;43342;-30
2021/03/25 19:15:11;;;;;;;36.45;19.10;;;;;;;11.59;77.26;98562.08;3690872;78;43376;-29
2021/03/25 19:20:20;;;;;;;33.78;17.80;;;;;;;11.50;78.29;98576.55;3696364;78;43734;-30
2021/03/25 19:25:29;;;;;;;35.03;18.65;;;;;;;11.46;79.12;98576.56;3698873;78;43712;-30
2021/03/25 19:30:38;;;;;;;38.33;20.72;;;;;;;11.33;80.62;98577.00;3698942;78;43480;-29
2021/03/25 19:35:46;;;;;;;35.35;18.75;;;;;;;11.30;80.18;98579.53;3694130;78;43701;-30
2021/03/25 19:40:53;;;;;;;37.20;19.27;;;;;;;11.31;79.97;98579.87;3704600;78;44059;-29
2021/03/25 19:46:00;;;;;;;32.60;17.17;;;;;;;11.22;80.67;98597.86;3696893;78;44098;-29
2021/03/25 19:51:09;;;;;;;37.75;19.02;;;;;;;11.13;81.38;98600.18;3627136;80;44237;-29
2021/03/25 19:56:15;;;;;;;35.88;18.32;;;;;;;11.17;80.29;98606.09;3736118;78;43309;-29
2021/03/25 20:01:22;;;;;;;33.63;18.52;;;;;;;11.17;80.03;98616.88;3736198;78;43681;-29
2021/03/25 20:06:28;;;;;;;34.85;18.45;;;;;;;11.07;80.45;98616.50;3734823;78;43388;-29
2021/03/25 20:11:34;;;;;;;33.92;17.95;;;;;;;11.02;81.42;98624.72;3735178;78;43390;-29
2021/03/25 20:16:41;;;;;;;37.75;18.15;;;;;;;10.98;81.29;98625.55;3736516;78;43736;-29
2021/03/25 20:21:48;;;;;;;35.03;17.98;;;;;;;10.95;82.19;98623.16;3732755;78;43436;-29
2021/03/25 20:26:54;;;;;;;33.18;17.67;;;;;;;10.88;82.55;98620.25;3737525;78;43673;-29
2021/03/25 20:32:01;;;;;;;36.23;18.05;;;;;;;10.81;84.00;98622.38;3737279;78;44027;-29
2021/03/25 20:37:08;;;;;;;35.33;16.50;;;;;;;10.70;84.71;98627.55;3736628;78;43344;-29
2021/03/25 20:42:16;;;;;;;38.78;19.90;;;;;;;10.54;85.84;98632.28;3735853;78;43267;-29
2021/03/25 20:47:23;;;;;;;34.78;17.75;;;;;;;10.30;89.70;98629.69;3660256;79;43341;-25
2021/03/25 20:52:30;;;;;;;39.60;19.55;;;;;;;10.20;90.73;98632.96;3724928;78;44061;-26
2021/03/25 20:57:38;;;;;;;35.20;17.00;;;;;;;9.98;92.28;98633.28;3725785;78;44372;-25
2021/03/25 21:02:44;;;;;;;37.35;19.23;;;;;;;9.96;90.89;98633.06;3721925;78;44396;-25
2021/03/25 21:07:50;;;;;;;35.55;17.40;;;;;;;10.02;87.70;98627.09;3723257;78;42922;-25
2021/03/25 21:12:57;;;;;;;38.23;18.85;;;;;;;10.05;86.59;98629.96;3721264;78;43386;-25
2021/03/25 21:18:03;;;;;;;37.98;19.20;;;;;;;9.96;88.67;98634.41;3719850;78;43405;-26
2021/03/25 21:23:12;;;;;;;34.10;17.02;;;;;;;9.93;87.63;98634.22;3724216;78;44124;-25
2021/03/25 21:28:20;;;;;;;36.63;17.70;;;;;;;9.74;87.13;98633.84;3722387;78;43654;-26
2021/03/25 21:33:29;;;;;;;35.60;16.23;;;;;;;9.53;87.92;98632.27;3714490;78;43695;-25
2021/03/25 21:38:36;;;;;;;35.60;17.53;;;;;;;9.45;89.14;98633.52;3720214;78;77435;-25
2021/03/25 21:43:43;;;;;;;35.70;18.63;;;;;;;9.34;89.50;98638.58;3721030;78;43625;-25
2021/03/25 21:48:50;;;;;;;34.10;18.92;;;;;;;9.13;92.63;98636.61;3719251;78;44091;-26
2021/03/25 21:53:59;;;;;;;39.85;19.60;;;;;;;8.73;100.00;98639.90;3720924;78;43685;-25
2021/03/25 21:59:06;;;;;;;39.25;18.48;;;;;;;8.40;100.00;98633.98;3716378;78;43322;-27
2021/03/25 22:04:12;;;;;;;39.42;18.65;;;;;;;8.36;100.00;98640.61;3720182;78;73327;-25
2021/03/25 22:09:19;;;;;;;43.23;20.35;;;;;;;8.45;100.00;98639.75;3722025;78;44056;-25
2021/03/25 22:14:26;;;;;;;38.70;19.48;;;;;;;8.45;100.00;98635.72;3724542;78;43370;-24
2021/03/25 22:19:32;;;;;;;35.68;18.80;;;;;;;8.52;100.00;98642.27;3714777;78;44393;-25
2021/03/25 22:24:38;;;;;;;36.20;18.33;;;;;;;8.51;100.00;98640.56;3715295;78;77274;-26
2021/03/25 22:29:44;;;;;;;36.50;18.32;;;;;;;8.58;99.18;98641.68;3720357;78;77425;-26
2021/03/25 22:34:49;;;;;;;32.98;17.23;;;;;;;8.54;98.64;98641.60;3720059;78;44113;-26
2021/03/25 22:39:55;;;;;;;32.50;17.23;;;;;;;8.48;99.18;98651.59;3719710;78;44771;-25
2021/03/25 22:45:01;;;;;;;32.15;16.20;;;;;;;8.39;99.61;98649.73;3714090;79;44042;-25
2021/03/25 22:50:10;;;;;;;35.43;17.70;;;;;;;8.27;100.00;98653.03;3717749;78;43772;-24
2021/03/25 22:55:18;;;;;;;34.15;17.05;;;;;;;8.17;100.00;98663.27;3726282;78;43474;-24
2021/03/25 23:00:34;;;;;;;36.60;17.27;;;;;;;8.08;100.00;98663.25;3720089;78;43694;-24
2021/03/25 23:05:40;;;;;;;33.92;15.83;;;;;;;8.00;100.00;98666.16;3724682;78;44023;-26
2021/03/25 23:10:49;;;;;;;31.35;16.60;;;;;;;7.93;100.00;98658.79;3713158;78;44073;-26
2021/03/25 23:15:55;;;;;;;33.50;17.13;;;;;;;7.81;100.00;98667.47;3715200;78;43099;-26
2021/03/25 23:21:01;;;;;;;33.67;17.00;;;;;;;7.74;100.00;98667.64;3714685;78;43713;-26
2021/03/25 23:26:08;;;;;;;31.60;16.65;;;;;;;7.52;100.00;98666.87;3710875;78;43762;-26
2021/03/25 23:31:14;;;;;;;33.85;16.48;;;;;;;7.44;100.00;98672.07;3718546;78;44078;-26
2021/03/25 23:36:23;;;;;;;35.37;17.10;;;;;;;7.36;100.00;98672.73;3721820;78;42808;-25
2021/03/25 23:41:31;;;;;;;31.57;15.20;;;;;;;7.27;100.00;98665.01;3722519;78;42856;-25